Terminal Aerodrome Forecast
Issued by NWS Salt Lake City, UT

Home | Current Version | Previous Version | Text Only | Print | Product List | Glossary On
Versions: 1 2 3 4 5 6 7 8 9 10 11 12 13 14
000
FTUS45 KSLC 311120
TAFCDC
TAF
KCDC 311120Z 3112/0112 15006KT P6SM SCT200
     FM311500 19010G15KT P6SM BKN200
     FM311700 22018G27KT P6SM SCT120 BKN200
     FM010200 17012KT P6SM SCT120 BKN200=

USA.gov is the U.S. government's official web portal to all federal, state and local government web resources and services.